PAKT/KTN METAR and TAF weather

Enter ICAO airport designator
Station Type Date Time Source
PAKT METAR 2020/08/12 16:53 UTC NOAA

PAKT 121653Z 36006KT 10SM SCT031 SCT060 14/09 A2997 RMK AO2 SLP150 HARBOR WIND 32007KT T01440089


Station Type Date Time Source
PAKT Decoded METAR 2020/08/12 16:53 UTC NOAA

KETCHIKAN INTERNATIONAL AIRPORT , AK, United States (PAKT) 55-21N 131-43W 25M
Aug 12, 2020 - 12:53 PM EDT / 2020.08.12 1653 UTC
Wind: from the N (360 degrees) at 7 MPH (6 KT):0
Visibility: 10 mile(s):0
Sky conditions: partly cloudy
Temperature: 57.9 F (14.4 C)
Dew Point: 48.0 F (8.9 C)
Relative Humidity: 69%
Pressure (altimeter): 29.97 in. Hg (1014 hPa)
ob: PAKT 121653Z 36006KT 10SM SCT031 SCT060 14/09 A2997 RMK AO2 SLP150 HARBOR WIND 32007KT T01440089
cycle: 17

Station Type Date Time Source
PAKT TAF 2020/08/12 18:33 UTC NOAA

TAF PAKT 121730Z 1218/1318 33008KT P6SM SCT035 BKN060
FM130200 14008KT P6SM SCT025 OVC050
AMD LTD TO CLD VIS AND WIND 1306/1315

Example: see airport list